sensor_id;sensor_type;location;lat;lon;timestamp;pressure;altitude;pressure_sealevel;temperature;humidity
49315;BME280;36672;50.710;12.498;2023-04-03T00:01:55;99520.06;;;2.22;69.65
49315;BME280;36672;50.710;12.498;2023-04-03T00:04:21;99523.72;;;2.21;69.34
49315;BME280;36672;50.710;12.498;2023-04-03T00:06:46;99523.09;;;2.17;69.24
49315;BME280;36672;50.710;12.498;2023-04-03T00:09:11;99524.19;;;2.15;69.12
49315;BME280;36672;50.710;12.498;2023-04-03T00:11:36;99520.78;;;2.12;69.87
49315;BME280;36672;50.710;12.498;2023-04-03T00:14:02;99519.34;;;2.08;69.70
49315;BME280;36672;50.710;12.498;2023-04-03T00:16:27;99521.25;;;2.06;69.66
49315;BME280;36672;50.710;12.498;2023-04-03T00:18:52;99516.19;;;2.03;69.49
49315;BME280;36672;50.710;12.498;2023-04-03T00:21:17;99527.09;;;2.00;69.30
49315;BME280;36672;50.710;12.498;2023-04-03T00:23:42;99526.09;;;2.01;69.31
49315;BME280;36672;50.710;12.498;2023-04-03T00:26:08;99528.78;;;2.01;69.21
49315;BME280;36672;50.710;12.498;2023-04-03T00:28:33;99532.44;;;2.00;69.28
49315;BME280;36672;50.710;12.498;2023-04-03T00:30:58;99527.44;;;1.95;69.60
49315;BME280;36672;50.710;12.498;2023-04-03T00:33:23;99529.50;;;1.92;69.56
49315;BME280;36672;50.710;12.498;2023-04-03T00:35:49;99528.75;;;1.90;69.02
49315;BME280;36672;50.710;12.498;2023-04-03T00:38:15;99528.06;;;1.88;69.24
49315;BME280;36672;50.710;12.498;2023-04-03T00:40:44;99521.97;;;1.86;69.50
49315;BME280;36672;50.710;12.498;2023-04-03T00:43:14;99523.19;;;1.82;69.58
49315;BME280;36672;50.710;12.498;2023-04-03T00:45:41;99529.00;;;1.75;68.95
49315;BME280;36672;50.710;12.498;2023-04-03T00:48:07;99532.00;;;1.71;69.33
49315;BME280;36672;50.710;12.498;2023-04-03T00:50:34;99533.09;;;1.68;69.17
49315;BME280;36672;50.710;12.498;2023-04-03T00:53:00;99533.47;;;1.63;69.15
49315;BME280;36672;50.710;12.498;2023-04-03T00:55:26;99533.56;;;1.62;69.25
49315;BME280;36672;50.710;12.498;2023-04-03T00:57:51;99538.88;;;1.62;69.62
49315;BME280;36672;50.710;12.498;2023-04-03T01:00:18;99544.47;;;1.59;69.89
49315;BME280;36672;50.710;12.498;2023-04-03T01:02:44;99546.28;;;1.58;69.99
49315;BME280;36672;50.710;12.498;2023-04-03T01:05:10;99543.72;;;1.57;69.33
49315;BME280;36672;50.710;12.498;2023-04-03T01:07:35;99552.06;;;1.52;69.37
49315;BME280;36672;50.710;12.498;2023-04-03T01:10:04;99549.75;;;1.48;69.15
49315;BME280;36672;50.710;12.498;2023-04-03T01:12:31;99549.13;;;1.44;69.24
49315;BME280;36672;50.710;12.498;2023-04-03T01:14:58;99544.13;;;1.39;68.70
49315;BME280;36672;50.710;12.498;2023-04-03T01:22:28;99548.25;;;1.32;69.36
49315;BME280;36672;50.710;12.498;2023-04-03T01:24:55;99546.88;;;1.26;69.33
49315;BME280;36672;50.710;12.498;2023-04-03T01:27:20;99548.72;;;1.26;69.31
49315;BME280;36672;50.710;12.498;2023-04-03T01:29:46;99558.41;;;1.27;69.47
49315;BME280;36672;50.710;12.498;2023-04-03T01:32:11;99558.41;;;1.27;69.50
49315;BME280;36672;50.710;12.498;2023-04-03T01:34:37;99565.41;;;1.28;69.39
49315;BME280;36672;50.710;12.498;2023-04-03T01:37:02;99561.06;;;1.27;69.15
49315;BME280;36672;50.710;12.498;2023-04-03T01:39:27;99564.69;;;1.26;69.43
49315;BME280;36672;50.710;12.498;2023-04-03T01:41:53;99563.72;;;1.27;69.49
49315;BME280;36672;50.710;12.498;2023-04-03T01:44:18;99561.16;;;1.25;69.05
49315;BME280;36672;50.710;12.498;2023-04-03T01:46:43;99555.72;;;1.27;69.23
49315;BME280;36672;50.710;12.498;2023-04-03T01:49:09;99563.72;;;1.27;69.76
49315;BME280;36672;50.710;12.498;2023-04-03T01:51:34;99570.97;;;1.25;69.68
49315;BME280;36672;50.710;12.498;2023-04-03T01:53:59;99568.63;;;1.20;69.12
49315;BME280;36672;50.710;12.498;2023-04-03T01:56:25;99574.06;;;1.19;69.22
49315;BME280;36672;50.710;12.498;2023-04-03T01:58:50;99575.28;;;1.14;69.30
49315;BME280;36672;50.710;12.498;2023-04-03T02:01:15;99572.50;;;1.16;69.54
49315;BME280;36672;50.710;12.498;2023-04-03T02:03:41;99573.44;;;1.15;69.15
49315;BME280;36672;50.710;12.498;2023-04-03T02:06:06;99571.88;;;1.12;69.14
49315;BME280;36672;50.710;12.498;2023-04-03T02:08:34;99574.97;;;1.06;68.97
49315;BME280;36672;50.710;12.498;2023-04-03T02:10:59;99579.59;;;1.04;69.11
49315;BME280;36672;50.710;12.498;2023-04-03T02:13:25;99570.13;;;1.00;68.91
49315;BME280;36672;50.710;12.498;2023-04-03T02:15:50;99575.78;;;0.95;68.67
49315;BME280;36672;50.710;12.498;2023-04-03T02:18:15;99572.25;;;0.95;69.15
49315;BME280;36672;50.710;12.498;2023-04-03T02:20:41;99571.66;;;0.91;68.83
49315;BME280;36672;50.710;12.498;2023-04-03T02:23:06;99568.34;;;0.88;69.23
49315;BME280;36672;50.710;12.498;2023-04-03T02:25:32;99568.56;;;0.85;69.14
49315;BME280;36672;50.710;12.498;2023-04-03T02:27:57;99576.78;;;0.81;69.07
49315;BME280;36672;50.710;12.498;2023-04-03T02:30:22;99576.91;;;0.80;69.48
49315;BME280;36672;50.710;12.498;2023-04-03T02:32:48;99571.16;;;0.73;69.21
49315;BME280;36672;50.710;12.498;2023-04-03T02:35:13;99576.59;;;0.72;69.37
49315;BME280;36672;50.710;12.498;2023-04-03T02:37:38;99571.16;;;0.73;69.72
49315;BME280;36672;50.710;12.498;2023-04-03T02:40:04;99576.47;;;0.73;69.76
49315;BME280;36672;50.710;12.498;2023-04-03T02:42:29;99580.13;;;0.72;69.41
49315;BME280;36672;50.710;12.498;2023-04-03T02:44:54;99578.63;;;0.68;69.17
49315;BME280;36672;50.710;12.498;2023-04-03T02:47:20;99588.53;;;0.66;69.33
49315;BME280;36672;50.710;12.498;2023-04-03T02:49:45;99582.69;;;0.61;69.27
49315;BME280;36672;50.710;12.498;2023-04-03T02:52:11;99582.91;;;0.58;69.59
49315;BME280;36672;50.710;12.498;2023-04-03T02:54:36;99588.22;;;0.58;69.64
49315;BME280;36672;50.710;12.498;2023-04-03T02:57:01;99595.69;;;0.53;69.73
49315;BME280;36672;50.710;12.498;2023-04-03T02:59:26;99596.75;;;0.50;69.90
49315;BME280;36672;50.710;12.498;2023-04-03T03:01:52;99598.56;;;0.50;69.83
49315;BME280;36672;50.710;12.498;2023-04-03T03:04:17;99596.53;;;0.40;69.40
49315;BME280;36672;50.710;12.498;2023-04-03T03:06:42;99598.25;;;0.41;69.50
49315;BME280;36672;50.710;12.498;2023-04-03T03:09:07;99606.34;;;0.40;69.94
49315;BME280;36672;50.710;12.498;2023-04-03T03:11:32;99607.41;;;0.37;70.11
49315;BME280;36672;50.710;12.498;2023-04-03T03:13:58;99604.84;;;0.36;70.07
49315;BME280;36672;50.710;12.498;2023-04-03T03:16:23;99611.31;;;0.31;69.84
49315;BME280;36672;50.710;12.498;2023-04-03T03:18:48;99606.25;;;0.28;70.00
49315;BME280;36672;50.710;12.498;2023-04-03T03:21:13;99601.69;;;0.30;70.75
49315;BME280;36672;50.710;12.498;2023-04-03T03:23:39;99615.91;;;0.29;70.50
49315;BME280;36672;50.710;12.498;2023-04-03T03:26:05;99615.16;;;0.27;70.48
49315;BME280;36672;50.710;12.498;2023-04-03T03:28:31;99614.31;;;0.27;70.72
49315;BME280;36672;50.710;12.498;2023-04-03T03:30:57;99615.38;;;0.24;70.84
49315;BME280;36672;50.710;12.498;2023-04-03T03:33:23;99614.53;;;0.24;70.87
49315;BME280;36672;50.710;12.498;2023-04-03T03:35:48;99611.75;;;0.25;71.15
49315;BME280;36672;50.710;12.498;2023-04-03T03:38:13;99615.28;;;0.26;70.97
49315;BME280;36672;50.710;12.498;2023-04-03T03:40:38;99619.72;;;0.25;70.81
49315;BME280;36672;50.710;12.498;2023-04-03T03:43:10;99621.53;;;0.25;71.03
49315;BME280;36672;50.710;12.498;2023-04-03T03:45:35;99620.91;;;0.21;70.60
49315;BME280;36672;50.710;12.498;2023-04-03T03:48:01;99622.91;;;0.18;70.74
49315;BME280;36672;50.710;12.498;2023-04-03T03:50:26;99619.53;;;0.15;71.00
49315;BME280;36672;50.710;12.498;2023-04-03T03:52:51;99623.13;;;0.14;71.26
49315;BME280;36672;50.710;12.498;2023-04-03T03:55:16;99623.44;;;0.10;70.69
49315;BME280;36672;50.710;12.498;2023-04-03T03:57:41;99623.44;;;0.10;71.06
49315;BME280;36672;50.710;12.498;2023-04-03T04:00:07;99626.44;;;0.05;70.75
49315;BME280;36672;50.710;12.498;2023-04-03T04:02:33;99630.06;;;0.04;71.09
49315;BME280;36672;50.710;12.498;2023-04-03T04:04:58;99629.28;;;0.02;71.10
49315;BME280;36672;50.710;12.498;2023-04-03T04:07:24;99626.84;;;-0.01;71.03
49315;BME280;36672;50.710;12.498;2023-04-03T04:09:49;99632.38;;;-0.04;71.37
49315;BME280;36672;50.710;12.498;2023-04-03T04:12:14;99634.28;;;-0.06;71.38
49315;BME280;36672;50.710;12.498;2023-04-03T04:14:40;99626.50;;;-0.09;71.23
49315;BME280;36672;50.710;12.498;2023-04-03T04:17:06;99643.75;;;-0.15;71.00
49315;BME280;36672;50.710;12.498;2023-04-03T04:19:31;99645.94;;;-0.22;71.15
49315;BME280;36672;50.710;12.498;2023-04-03T04:21:56;99651.16;;;-0.20;71.03
49315;BME280;36672;50.710;12.498;2023-04-03T04:24:21;99647.75;;;-0.22;70.97
49315;BME280;36672;50.710;12.498;2023-04-03T04:26:47;99646.25;;;-0.26;71.02
49315;BME280;36672;50.710;12.498;2023-04-03T04:29:13;99652.81;;;-0.32;71.36
49315;BME280;36672;50.710;12.498;2023-04-03T04:31:38;99654.81;;;-0.36;70.90
49315;BME280;36672;50.710;12.498;2023-04-03T04:34:03;99658.75;;;-0.41;71.37
49315;BME280;36672;50.710;12.498;2023-04-03T04:36:28;99663.50;;;-0.46;71.79
49315;BME280;36672;50.710;12.498;2023-04-03T04:38:53;99662.03;;;-0.51;71.91
49315;BME280;36672;50.710;12.498;2023-04-03T04:41:20;99657.84;;;-0.55;71.65
49315;BME280;36672;50.710;12.498;2023-04-03T04:43:47;99660.72;;;-0.58;71.99
49315;BME280;36672;50.710;12.498;2023-04-03T04:46:12;99662.72;;;-0.61;72.17
49315;BME280;36672;50.710;12.498;2023-04-03T04:48:37;99662.16;;;-0.67;72.04
49315;BME280;36672;50.710;12.498;2023-04-03T04:51:03;99662.38;;;-0.70;72.42
49315;BME280;36672;50.710;12.498;2023-04-03T04:53:28;99667.97;;;-0.74;72.50
49315;BME280;36672;50.710;12.498;2023-04-03T04:55:53;99668.63;;;-0.71;72.59
49315;BME280;36672;50.710;12.498;2023-04-03T04:58:19;99672.00;;;-0.69;72.91
49315;BME280;36672;50.710;12.498;2023-04-03T05:00:45;99674.50;;;-0.66;72.15
49315;BME280;36672;50.710;12.498;2023-04-03T05:03:10;99675.44;;;-0.67;72.56
49315;BME280;36672;50.710;12.498;2023-04-03T05:05:36;99679.47;;;-0.61;72.77
49315;BME280;36672;50.710;12.498;2023-04-03T05:08:01;99676.75;;;-0.59;72.49
49315;BME280;36672;50.710;12.498;2023-04-03T05:10:27;99681.94;;;-0.58;72.42
49315;BME280;36672;50.710;12.498;2023-04-03T05:12:52;99679.19;;;-0.56;72.69
49315;BME280;36672;50.710;12.498;2023-04-03T05:15:17;99682.72;;;-0.56;72.56
49315;BME280;36672;50.710;12.498;2023-04-03T05:17:43;99681.84;;;-0.56;72.43
49315;BME280;36672;50.710;12.498;2023-04-03T05:20:08;99688.97;;;-0.57;72.51
49315;BME280;36672;50.710;12.498;2023-04-03T05:22:34;99693.41;;;-0.57;72.83
49315;BME280;36672;50.710;12.498;2023-04-03T05:24:59;99696.72;;;-0.54;72.48
49315;BME280;36672;50.710;12.498;2023-04-03T05:27:24;99697.47;;;-0.52;72.62
49315;BME280;36672;50.710;12.498;2023-04-03T05:29:50;99695.38;;;-0.46;72.90
49315;BME280;36672;50.710;12.498;2023-04-03T05:32:15;99698.47;;;-0.40;72.59
49315;BME280;36672;50.710;12.498;2023-04-03T05:34:40;99699.56;;;-0.29;72.36
49315;BME280;36672;50.710;12.498;2023-04-03T05:37:05;99702.38;;;-0.18;72.39
49315;BME280;36672;50.710;12.498;2023-04-03T05:39:31;99706.88;;;-0.06;72.39
49315;BME280;36672;50.710;12.498;2023-04-03T05:41:56;99715.25;;;0.01;71.69
49315;BME280;36672;50.710;12.498;2023-04-03T05:44:22;99708.81;;;0.05;71.72
49315;BME280;36672;50.710;12.498;2023-04-03T05:46:47;99710.09;;;0.12;71.10
49315;BME280;36672;50.710;12.498;2023-04-03T05:49:12;99705.31;;;0.18;70.64
49315;BME280;36672;50.710;12.498;2023-04-03T05:51:38;99709.38;;;0.23;70.27
49315;BME280;36672;50.710;12.498;2023-04-03T05:54:09;99708.00;;;0.30;70.36
49315;BME280;36672;50.710;12.498;2023-04-03T05:56:37;99713.22;;;0.45;70.21
49315;BME280;36672;50.710;12.498;2023-04-03T05:59:02;99702.69;;;0.56;69.28
49315;BME280;36672;50.710;12.498;2023-04-03T06:01:27;99711.84;;;0.65;69.16
49315;BME280;36672;50.710;12.498;2023-04-03T06:03:53;99714.66;;;1.13;69.03
49315;BME280;36672;50.710;12.498;2023-04-03T06:06:20;99716.97;;;1.55;66.79
49315;BME280;36672;50.710;12.498;2023-04-03T06:08:58;99717.53;;;1.72;66.39
49315;BME280;36672;50.710;12.498;2023-04-03T06:11:23;99727.44;;;1.70;66.03
49315;BME280;36672;50.710;12.498;2023-04-03T06:13:48;99721.97;;;1.60;64.60
49315;BME280;36672;50.710;12.498;2023-04-03T06:16:14;99723.19;;;1.43;64.80
49315;BME280;36672;50.710;12.498;2023-04-03T06:18:40;99728.13;;;1.60;65.76
49315;BME280;36672;50.710;12.498;2023-04-03T06:21:06;99729.53;;;1.66;64.52
49315;BME280;36672;50.710;12.498;2023-04-03T06:23:32;99732.28;;;1.65;64.97
49315;BME280;36672;50.710;12.498;2023-04-03T06:25:57;99732.78;;;1.70;65.23
49315;BME280;36672;50.710;12.498;2023-04-03T06:28:23;99727.63;;;1.79;64.89
49315;BME280;36672;50.710;12.498;2023-04-03T06:30:48;99731.38;;;1.77;64.67
49315;BME280;36672;50.710;12.498;2023-04-03T06:33:13;99734.97;;;1.89;64.06
49315;BME280;36672;50.710;12.498;2023-04-03T06:35:39;99740.03;;;1.92;63.28
49315;BME280;36672;50.710;12.498;2023-04-03T06:38:05;99748.75;;;1.83;62.86
49315;BME280;36672;50.710;12.498;2023-04-03T06:40:34;99744.69;;;1.77;63.65
49315;BME280;36672;50.710;12.498;2023-04-03T06:43:00;99747.72;;;1.72;63.90
49315;BME280;36672;50.710;12.498;2023-04-03T06:45:25;99749.97;;;1.66;62.66
49315;BME280;36672;50.710;12.498;2023-04-03T06:47:51;99761.41;;;1.55;63.71
49315;BME280;36672;50.710;12.498;2023-04-03T06:50:16;99759.31;;;1.47;63.23
49315;BME280;36672;50.710;12.498;2023-04-03T06:52:41;99749.16;;;1.52;63.22
49315;BME280;36672;50.710;12.498;2023-04-03T06:55:07;99758.84;;;1.53;63.08
49315;BME280;36672;50.710;12.498;2023-04-03T06:57:34;99763.69;;;1.35;63.18
49315;BME280;36672;50.710;12.498;2023-04-03T06:59:59;99763.91;;;1.32;62.56
49315;BME280;36672;50.710;12.498;2023-04-03T07:02:24;99761.78;;;1.37;62.75
49315;BME280;36672;50.710;12.498;2023-04-03T07:04:50;99780.00;;;1.30;62.48
49315;BME280;36672;50.710;12.498;2023-04-03T07:07:15;99774.84;;;1.40;63.26
49315;BME280;36672;50.710;12.498;2023-04-03T07:09:42;99777.53;;;1.40;61.93
49315;BME280;36672;50.710;12.498;2023-04-03T07:12:07;99778.22;;;1.55;62.81
49315;BME280;36672;50.710;12.498;2023-04-03T07:14:33;99783.25;;;1.60;61.76
49315;BME280;36672;50.710;12.498;2023-04-03T07:16:58;99787.44;;;1.75;62.25
49315;BME280;36672;50.710;12.498;2023-04-03T07:19:23;99786.81;;;1.96;60.97
49315;BME280;36672;50.710;12.498;2023-04-03T07:21:52;99792.84;;;2.47;58.82
49315;BME280;36672;50.710;12.498;2023-04-03T07:24:17;99795.63;;;2.81;59.22
49315;BME280;36672;50.710;12.498;2023-04-03T07:26:42;99798.81;;;3.08;57.22
49315;BME280;36672;50.710;12.498;2023-04-03T07:29:10;99793.69;;;3.28;58.78
49315;BME280;36672;50.710;12.498;2023-04-03T07:31:35;99802.31;;;3.43;55.42
49315;BME280;36672;50.710;12.498;2023-04-03T07:34:00;99796.78;;;3.90;55.54
49315;BME280;36672;50.710;12.498;2023-04-03T07:36:25;99791.47;;;4.55;53.67
49315;BME280;36672;50.710;12.498;2023-04-03T07:38:51;99796.81;;;4.55;51.26
49315;BME280;36672;50.710;12.498;2023-04-03T07:41:17;99791.88;;;5.23;51.84
49315;BME280;36672;50.710;12.498;2023-04-03T07:43:43;99795.22;;;5.16;50.25
49315;BME280;36672;50.710;12.498;2023-04-03T07:46:08;99802.94;;;4.88;51.08
49315;BME280;36672;50.710;12.498;2023-04-03T07:48:34;99810.56;;;5.14;52.51
49315;BME280;36672;50.710;12.498;2023-04-03T07:51:00;99798.78;;;6.17;48.87
49315;BME280;36672;50.710;12.498;2023-04-03T07:53:26;99804.47;;;5.83;49.01
49315;BME280;36672;50.710;12.498;2023-04-03T07:55:51;99814.72;;;5.59;48.28
49315;BME280;36672;50.710;12.498;2023-04-03T07:58:20;99803.81;;;5.50;49.86
49315;BME280;36672;50.710;12.498;2023-04-03T08:00:45;99807.69;;;6.38;48.14
49315;BME280;36672;50.710;12.498;2023-04-03T08:03:11;99808.13;;;6.52;47.71
49315;BME280;36672;50.710;12.498;2023-04-03T08:05:38;99813.88;;;6.87;45.38
49315;BME280;36672;50.710;12.498;2023-04-03T08:08:04;99820.94;;;6.88;44.96
49315;BME280;36672;50.710;12.498;2023-04-03T08:10:30;99815.91;;;6.36;45.67
49315;BME280;36672;50.710;12.498;2023-04-03T08:12:55;99815.03;;;6.75;46.54
49315;BME280;36672;50.710;12.498;2023-04-03T08:15:20;99811.38;;;6.46;45.85
49315;BME280;36672;50.710;12.498;2023-04-03T08:17:45;99819.84;;;6.22;46.15
49315;BME280;36672;50.710;12.498;2023-04-03T08:20:11;99826.28;;;6.00;46.53
49315;BME280;36672;50.710;12.498;2023-04-03T08:22:36;99818.47;;;5.87;47.24
49315;BME280;36672;50.710;12.498;2023-04-03T08:25:02;99824.63;;;6.97;45.91
49315;BME280;36672;50.710;12.498;2023-04-03T08:27:27;99828.53;;;7.22;42.62
49315;BME280;36672;50.710;12.498;2023-04-03T08:29:53;99829.44;;;6.93;44.17
49315;BME280;36672;50.710;12.498;2023-04-03T08:32:18;99828.38;;;7.24;43.85
49315;BME280;36672;50.710;12.498;2023-04-03T08:34:44;99827.13;;;8.29;43.35
49315;BME280;36672;50.710;12.498;2023-04-03T08:37:09;99829.47;;;8.78;41.47
49315;BME280;36672;50.710;12.498;2023-04-03T08:39:34;99831.88;;;9.69;40.91
49315;BME280;36672;50.710;12.498;2023-04-03T08:42:02;99828.81;;;9.29;40.05
49315;BME280;36672;50.710;12.498;2023-04-03T08:49:42;99834.97;;;6.52;42.47
49315;BME280;36672;50.710;12.498;2023-04-03T08:54:57;99843.00;;;5.82;44.33
49315;BME280;36672;50.710;12.498;2023-04-03T08:57:32;99837.16;;;5.58;44.87
49315;BME280;36672;50.710;12.498;2023-04-03T08:59:59;99838.00;;;5.58;45.44
49315;BME280;36672;50.710;12.498;2023-04-03T09:02:29;99838.06;;;5.78;45.27
49315;BME280;36672;50.710;12.498;2023-04-03T09:04:57;99843.59;;;5.86;44.68
49315;BME280;36672;50.710;12.498;2023-04-03T09:07:30;99845.09;;;5.79;44.57
49315;BME280;36672;50.710;12.498;2023-04-03T09:09:59;99845.78;;;5.61;43.37
49315;BME280;36672;50.710;12.498;2023-04-03T09:12:48;99850.84;;;5.64;44.31
49315;BME280;36672;50.710;12.498;2023-04-03T09:23:00;99849.88;;;5.34;44.58
49315;BME280;36672;50.710;12.498;2023-04-03T09:25:31;99848.38;;;5.20;44.52
49315;BME280;36672;50.710;12.498;2023-04-03T09:27:59;99852.22;;;6.89;45.43
49315;BME280;36672;50.710;12.498;2023-04-03T09:30:25;99856.69;;;7.56;41.72
49315;BME280;36672;50.710;12.498;2023-04-03T09:32:51;99844.72;;;7.40;41.99
49315;BME280;36672;50.710;12.498;2023-04-03T09:37:49;99846.53;;;6.82;41.36
49315;BME280;36672;50.710;12.498;2023-04-03T09:40:33;99850.38;;;6.60;41.46
49315;BME280;36672;50.710;12.498;2023-04-03T09:43:18;99847.09;;;6.47;42.65
49315;BME280;36672;50.710;12.498;2023-04-03T09:45:46;99847.09;;;6.96;41.68
49315;BME280;36672;50.710;12.498;2023-04-03T09:58:42;99820.25;;;9.68;38.61
49315;BME280;36672;50.710;12.498;2023-04-03T10:01:20;99825.72;;;9.93;37.89
49315;BME280;36672;50.710;12.498;2023-04-03T10:03:45;99822.53;;;10.82;36.54
49315;BME280;36672;50.710;12.498;2023-04-03T10:06:21;99820.66;;;11.15;34.53
49315;BME280;36672;50.710;12.498;2023-04-03T10:08:53;99821.34;;;12.13;34.62
49315;BME280;36672;50.710;12.498;2023-04-03T10:11:23;99820.91;;;11.93;33.48
49315;BME280;36672;50.710;12.498;2023-04-03T10:13:54;99826.16;;;12.03;34.83
49315;BME280;36672;50.710;12.498;2023-04-03T10:16:23;99818.59;;;12.21;35.27
49315;BME280;36672;50.710;12.498;2023-04-03T10:24:10;99828.34;;;9.68;37.95
49315;BME280;36672;50.710;12.498;2023-04-03T10:31:33;99814.94;;;8.53;39.39
49315;BME280;36672;50.710;12.498;2023-04-03T10:39:02;99819.88;;;7.28;39.27
49315;BME280;36672;50.710;12.498;2023-04-03T10:43:59;99807.94;;;7.96;38.70
49315;BME280;36672;50.710;12.498;2023-04-03T10:56:47;99788.97;;;11.32;33.77
49315;BME280;36672;50.710;12.498;2023-04-03T11:01:38;99784.97;;;11.12;33.22
49315;BME280;36672;50.710;12.498;2023-04-03T11:04:05;99781.00;;;9.90;33.96
49315;BME280;36672;50.710;12.498;2023-04-03T11:06:32;99785.41;;;9.14;35.84
49315;BME280;36672;50.710;12.498;2023-04-03T11:11:25;99790.19;;;8.22;37.77
49315;BME280;36672;50.710;12.498;2023-04-03T11:13:53;99784.31;;;8.54;38.27
49315;BME280;36672;50.710;12.498;2023-04-03T11:16:29;99785.81;;;8.75;38.49
49315;BME280;36672;50.710;12.498;2023-04-03T11:21:22;99788.44;;;8.30;37.50
49315;BME280;36672;50.710;12.498;2023-04-03T11:23:51;99778.09;;;8.08;37.01
49315;BME280;36672;50.710;12.498;2023-04-03T11:26:21;99774.81;;;7.68;37.74
49315;BME280;36672;50.710;12.498;2023-04-03T11:28:51;99775.47;;;7.52;38.77
49315;BME280;36672;50.710;12.498;2023-04-03T11:31:32;99776.22;;;7.72;39.02
49315;BME280;36672;50.710;12.498;2023-04-03T11:36:52;99771.81;;;7.71;38.49
49315;BME280;36672;50.710;12.498;2023-04-03T11:41:44;99755.13;;;7.67;38.75
49315;BME280;36672;50.710;12.498;2023-04-03T11:44:29;99755.97;;;8.94;37.61
49315;BME280;36672;50.710;12.498;2023-04-03T11:46:56;99752.91;;;9.58;36.02
49315;BME280;36672;50.710;12.498;2023-04-03T11:52:09;99751.59;;;9.28;34.76
49315;BME280;36672;50.710;12.498;2023-04-03T11:54:45;99748.69;;;9.21;36.36
49315;BME280;36672;50.710;12.498;2023-04-03T11:57:42;99742.88;;;9.85;35.22
49315;BME280;36672;50.710;12.498;2023-04-03T12:02:51;99741.41;;;10.16;33.53
49315;BME280;36672;50.710;12.498;2023-04-03T12:05:24;99736.84;;;10.16;33.82
49315;BME280;36672;50.710;12.498;2023-04-03T12:10:33;99737.47;;;9.00;33.56
49315;BME280;36672;50.710;12.498;2023-04-03T12:12:59;99737.44;;;8.29;34.42
49315;BME280;36672;50.710;12.498;2023-04-03T12:18:30;99730.47;;;7.72;35.10
49315;BME280;36672;50.710;12.498;2023-04-03T12:23:28;99717.13;;;9.56;34.46
49315;BME280;36672;50.710;12.498;2023-04-03T12:25:59;99716.25;;;10.32;32.70
49315;BME280;36672;50.710;12.498;2023-04-03T12:28:25;99713.94;;;10.45;33.25
49315;BME280;36672;50.710;12.498;2023-04-03T12:30:51;99712.75;;;10.48;32.09
49315;BME280;36672;50.710;12.498;2023-04-03T12:33:22;99710.53;;;10.51;32.74
49315;BME280;36672;50.710;12.498;2023-04-03T12:35:54;99709.84;;;10.33;31.47
49315;BME280;36672;50.710;12.498;2023-04-03T12:38:25;99720.66;;;10.16;33.04
49315;BME280;36672;50.710;12.498;2023-04-03T12:46:38;99708.06;;;9.14;33.86
49315;BME280;36672;50.710;12.498;2023-04-03T12:49:12;99696.41;;;8.79;33.63
49315;BME280;36672;50.710;12.498;2023-04-03T12:51:43;99706.97;;;8.46;34.55
49315;BME280;36672;50.710;12.498;2023-04-03T12:54:13;99703.78;;;8.51;35.59
49315;BME280;36672;50.710;12.498;2023-04-03T12:56:39;99705.31;;;8.36;35.18
49315;BME280;36672;50.710;12.498;2023-04-03T12:59:24;99714.63;;;8.23;34.87
49315;BME280;36672;50.710;12.498;2023-04-03T13:02:00;99708.66;;;7.93;34.97
49315;BME280;36672;50.710;12.498;2023-04-03T13:04:30;99713.56;;;7.80;35.57
49315;BME280;36672;50.710;12.498;2023-04-03T13:06:56;99710.28;;;7.86;35.54
49315;BME280;36672;50.710;12.498;2023-04-03T13:09:23;99707.19;;;7.81;36.21
49315;BME280;36672;50.710;12.498;2023-04-03T13:12:08;99700.19;;;7.70;35.46
49315;BME280;36672;50.710;12.498;2023-04-03T13:14:35;99708.59;;;7.39;34.77
49315;BME280;36672;50.710;12.498;2023-04-03T13:17:09;99702.38;;;7.39;35.16
49315;BME280;36672;50.710;12.498;2023-04-03T13:19:36;99697.50;;;7.70;35.33
49315;BME280;36672;50.710;12.498;2023-04-03T13:22:03;99703.03;;;7.68;33.25
49315;BME280;36672;50.710;12.498;2023-04-03T13:24:30;99697.75;;;7.31;34.53
49315;BME280;36672;50.710;12.498;2023-04-03T13:26:58;99700.84;;;7.36;35.71
49315;BME280;36672;50.710;12.498;2023-04-03T13:29:28;99695.94;;;7.22;36.58
49315;BME280;36672;50.710;12.498;2023-04-03T13:31:54;99691.72;;;7.19;37.15
49315;BME280;36672;50.710;12.498;2023-04-03T13:34:20;99703.06;;;7.13;38.03
49315;BME280;36672;50.710;12.498;2023-04-03T13:41:43;99698.91;;;6.91;37.01
49315;BME280;36672;50.710;12.498;2023-04-03T13:44:25;99691.59;;;6.83;36.70
49315;BME280;36672;50.710;12.498;2023-04-03T13:46:55;99687.41;;;6.61;35.88
49315;BME280;36672;50.710;12.498;2023-04-03T13:49:22;99676.09;;;6.57;36.15
49315;BME280;36672;50.710;12.498;2023-04-03T13:51:48;99677.56;;;6.89;36.55
49315;BME280;36672;50.710;12.498;2023-04-03T13:55:00;99671.06;;;7.20;35.41
49315;BME280;36672;50.710;12.498;2023-04-03T13:57:03;99679.81;;;7.22;36.35
49315;BME280;36672;50.710;12.498;2023-04-03T13:59:36;99677.22;;;7.02;35.27
49315;BME280;36672;50.710;12.498;2023-04-03T14:04:27;99672.56;;;6.66;37.37
49315;BME280;36672;50.710;12.498;2023-04-03T14:06:54;99680.53;;;6.39;38.28
49315;BME280;36672;50.710;12.498;2023-04-03T14:09:19;99686.63;;;6.31;38.25
49315;BME280;36672;50.710;12.498;2023-04-03T14:11:46;99683.97;;;6.21;36.83
49315;BME280;36672;50.710;12.498;2023-04-03T14:14:13;99682.25;;;6.10;37.42
49315;BME280;36672;50.710;12.498;2023-04-03T14:16:40;99685.50;;;6.24;37.03
49315;BME280;36672;50.710;12.498;2023-04-03T14:19:09;99686.81;;;6.67;36.50
49315;BME280;36672;50.710;12.498;2023-04-03T14:21:40;99683.22;;;7.24;35.92
49315;BME280;36672;50.710;12.498;2023-04-03T14:24:05;99674.72;;;7.46;35.27
49315;BME280;36672;50.710;12.498;2023-04-03T14:26:30;99670.13;;;7.39;35.63
49315;BME280;36672;50.710;12.498;2023-04-03T14:28:56;99664.03;;;7.37;36.15
49315;BME280;36672;50.710;12.498;2023-04-03T14:31:21;99667.22;;;6.94;36.70
49315;BME280;36672;50.710;12.498;2023-04-03T14:33:47;99682.97;;;6.79;38.06
49315;BME280;36672;50.710;12.498;2023-04-03T14:38:37;99681.94;;;6.43;39.42
49315;BME280;36672;50.710;12.498;2023-04-03T14:41:02;99678.28;;;6.24;38.45